Time;durP1;ratioP1;P1;durP2;ratioP2;P2;SDS_P1;SDS_P2;PMS_P1;PMS_P2;Temp;Humidity;BMP_temperature;BMP_pressure;BME280_temperature;BME280_humidity;BME280_pressure;Samples;Min_cycle;Max_cycle;Signal;HPM_P1;HPM_P2
2022/05/16 00:01:53;;;;;;;8.67;4.00;;;13.40;99.90;;;;;;5052297;28;20190;-59
2022/05/16 00:04:19;;;;;;;10.13;3.13;;;13.50;99.90;;;;;;5052013;28;20186;-58
2022/05/16 00:06:44;;;;;;;10.67;3.37;;;13.40;99.90;;;;;;5052769;28;20178;-58
2022/05/16 00:09:10;;;;;;;9.77;3.63;;;13.40;99.90;;;;;;5052546;28;20785;-57
2022/05/16 00:11:36;;;;;;;14.27;3.83;;;13.40;99.90;;;;;;5052518;28;20280;-59
2022/05/16 00:14:02;;;;;;;11.23;3.57;;;13.40;99.90;;;;;;5052288;28;20229;-59
2022/05/16 00:16:28;;;;;;;11.67;3.40;;;13.30;99.90;;;;;;5052278;28;20174;-58
2022/05/16 00:18:54;;;;;;;10.83;3.93;;;13.30;99.90;;;;;;5052454;28;20186;-58
2022/05/16 00:21:20;;;;;;;9.90;3.17;;;13.20;99.90;;;;;;5051966;28;20797;-57
2022/05/16 00:23:46;;;;;;;12.10;3.20;;;13.10;99.90;;;;;;5051992;28;20230;-57
2022/05/16 00:26:11;;;;;;;9.27;3.70;;;13.00;99.90;;;;;;5051895;28;20208;-58
2022/05/16 00:28:37;;;;;;;11.87;4.57;;;13.00;99.90;;;;;;5052334;28;20187;-58
2022/05/16 00:31:04;;;;;;;8.87;3.50;;;12.90;99.90;;;;;;5051888;28;20733;-57
2022/05/16 00:33:30;;;;;;;11.10;3.93;;;12.80;99.90;;;;;;5052315;28;20178;-57
2022/05/16 00:35:56;;;;;;;6.93;3.43;;;12.70;99.90;;;;;;5052219;28;20344;-58
2022/05/16 00:38:21;;;;;;;12.30;3.60;;;12.70;99.90;;;;;;5051983;28;20718;-57
2022/05/16 00:40:47;;;;;;;12.00;3.60;;;12.60;99.90;;;;;;5052146;28;20196;-58
2022/05/16 00:43:14;;;;;;;14.00;3.73;;;12.60;99.90;;;;;;5052061;28;20178;-58
2022/05/16 00:45:40;;;;;;;7.40;3.40;;;12.60;99.90;;;;;;5052001;28;20188;-57
2022/05/16 00:48:06;;;;;;;10.67;3.90;;;12.50;99.90;;;;;;5051815;28;20649;-57
2022/05/16 00:50:39;;;;;;;15.87;4.00;;;12.50;99.90;;;;;;5052017;28;20233;-59
2022/05/16 00:53:06;;;;;;;9.47;4.10;;;12.40;99.90;;;;;;5051920;28;20194;-60
2022/05/16 00:55:37;;;;;;;9.67;3.70;;;12.30;99.90;;;;;;5051901;28;20178;-57
2022/05/16 00:58:13;;;;;;;8.67;3.17;;;12.30;99.90;;;;;;5051693;28;20177;-58
2022/05/16 01:00:41;;;;;;;14.27;3.87;;;12.30;99.90;;;;;;5051536;28;20592;-57
2022/05/16 01:05:53;;;;;;;26.60;4.43;;;12.20;99.90;;;;;;5055504;28;20567;-57
2022/05/16 01:08:22;;;;;;;12.90;3.67;;;12.10;99.90;;;;;;5055675;28;20193;-57
2022/05/16 01:10:48;;;;;;;9.70;3.53;;;12.10;99.90;;;;;;5055953;28;20217;-58
2022/05/16 01:13:15;;;;;;;10.53;4.00;;;12.00;99.90;;;;;;5055385;28;20189;-57
2022/05/16 01:15:49;;;;;;;13.20;4.53;;;12.00;99.90;;;;;;5055840;28;20186;-58
2022/05/16 01:18:19;;;;;;;12.10;5.10;;;12.00;99.90;;;;;;5055731;28;20162;-58
2022/05/16 01:21:16;;;;;;;15.90;5.10;;;11.90;99.90;;;;;;5055968;28;20192;-58
2022/05/16 01:23:47;;;;;;;14.60;4.70;;;11.80;99.90;;;;;;5055747;28;20218;-56
2022/05/16 01:26:19;;;;;;;14.67;4.87;;;11.70;99.90;;;;;;5055284;28;20236;-62
2022/05/16 01:28:45;;;;;;;12.93;4.47;;;11.60;99.90;;;;;;5055784;28;20176;-58
2022/05/16 01:31:11;;;;;;;11.97;4.40;;;11.50;99.90;;;;;;5055032;28;20244;-57
2022/05/16 01:33:37;;;;;;;18.10;4.87;;;11.60;99.90;;;;;;5055622;28;20540;-57
2022/05/16 01:36:04;;;;;;;9.77;4.20;;;11.50;99.90;;;;;;5055346;28;20184;-58
2022/05/16 01:38:31;;;;;;;9.03;3.93;;;11.40;99.90;;;;;;5055816;28;20185;-57
2022/05/16 01:41:00;;;;;;;15.03;4.10;;;11.30;99.90;;;;;;5055462;28;20195;-58
2022/05/16 01:43:32;;;;;;;11.80;4.33;;;11.30;99.90;;;;;;5055477;28;20204;-58
2022/05/16 01:45:58;;;;;;;19.30;4.73;;;11.40;99.90;;;;;;5054995;28;20189;-57
2022/05/16 01:48:25;;;;;;;13.57;4.67;;;11.30;99.90;;;;;;5054820;28;20193;-57
2022/05/16 01:50:56;;;;;;;11.13;4.37;;;11.30;99.90;;;;;;5055202;28;20216;-57
2022/05/16 01:53:22;;;;;;;15.00;4.97;;;11.20;99.90;;;;;;5054747;28;20166;-57
2022/05/16 01:55:47;;;;;;;18.10;4.83;;;11.20;99.90;;;;;;5055016;28;20544;-57
2022/05/16 01:58:13;;;;;;;15.37;4.97;;;11.20;99.90;;;;;;5054913;28;20181;-58
2022/05/16 02:00:39;;;;;;;10.23;4.43;;;11.10;99.90;;;;;;5054784;28;20181;-57
2022/05/16 02:03:08;;;;;;;16.83;5.57;;;11.10;99.90;;;;;;5053278;28;20196;-58
2022/05/16 02:05:34;;;;;;;12.07;5.27;;;11.00;99.90;;;;;;5055037;28;20181;-56
2022/05/16 02:08:00;;;;;;;11.17;4.93;;;11.00;99.90;;;;;;5054933;28;20319;-59
2022/05/16 02:10:27;;;;;;;21.10;5.33;;;10.90;99.90;;;;;;5054842;28;20315;-56
2022/05/16 02:12:56;;;;;;;18.33;5.73;;;10.80;99.90;;;;;;5054856;28;20216;-57
2022/05/16 02:15:24;;;;;;;18.40;5.97;;;10.80;99.90;;;;;;5054043;28;20172;-57
2022/05/16 02:17:50;;;;;;;15.07;5.90;;;10.70;99.90;;;;;;5054757;28;20256;-55
2022/05/16 02:20:17;;;;;;;16.00;5.80;;;10.60;99.90;;;;;;5054322;28;20200;-58
2022/05/16 02:25:27;;;;;;;10.97;5.33;;;10.60;99.90;;;;;;5054043;28;20282;-58
2022/05/16 02:27:54;;;;;;;12.17;5.57;;;10.70;99.90;;;;;;5054603;28;20183;-58
2022/05/16 02:30:21;;;;;;;20.93;6.03;;;10.60;99.90;;;;;;5053636;28;20215;-57
2022/05/16 02:32:48;;;;;;;10.30;5.87;;;10.60;99.90;;;;;;5054514;28;20221;-59
2022/05/16 02:35:14;;;;;;;13.43;6.27;;;10.60;99.90;;;;;;5053864;28;20629;-57
2022/05/16 02:37:39;;;;;;;11.60;6.07;;;10.50;99.90;;;;;;5054337;28;20175;-57
2022/05/16 02:40:06;;;;;;;19.77;5.80;;;10.50;99.90;;;;;;5054020;28;20269;-58
2022/05/16 02:42:32;;;;;;;19.17;5.80;;;10.40;99.90;;;;;;5054253;28;20179;-58
2022/05/16 02:44:58;;;;;;;16.97;5.63;;;10.30;99.90;;;;;;5054035;28;20282;-58
2022/05/16 02:47:24;;;;;;;16.43;6.60;;;10.30;99.90;;;;;;5053955;28;20175;-57
2022/05/16 02:49:51;;;;;;;21.17;5.93;;;10.30;99.90;;;;;;5053895;28;20603;-56
2022/05/16 02:52:17;;;;;;;15.20;5.53;;;10.30;99.90;;;;;;5053528;28;20594;-59
2022/05/16 02:54:44;;;;;;;14.67;5.70;;;10.30;99.90;;;;;;5053974;28;20211;-58
2022/05/16 02:57:10;;;;;;;19.00;6.30;;;10.40;99.90;;;;;;5053497;28;20716;-59
2022/05/16 02:59:37;;;;;;;15.03;6.00;;;10.50;99.90;;;;;;5049940;28;20287;-58
2022/05/16 03:02:04;;;;;;;16.90;5.17;;;10.60;99.90;;;;;;5053218;28;20199;-59
2022/05/16 03:04:31;;;;;;;17.23;5.20;;;10.70;99.90;;;;;;5053460;28;20234;-58
2022/05/16 03:06:57;;;;;;;21.70;6.43;;;10.80;99.90;;;;;;5053688;28;20271;-59
2022/05/16 03:09:25;;;;;;;16.77;6.60;;;10.90;99.90;;;;;;5052103;28;20730;-59
2022/05/16 03:11:52;;;;;;;19.57;6.57;;;11.10;99.90;;;;;;5053606;28;20213;-58
2022/05/16 03:14:18;;;;;;;12.07;5.37;;;11.10;99.90;;;;;;5052914;28;20184;-60
2022/05/16 03:16:43;;;;;;;15.13;5.67;;;11.30;99.90;;;;;;5053436;28;20195;-58
2022/05/16 03:19:09;;;;;;;15.13;6.37;;;11.30;99.90;;;;;;5051815;28;20207;-57
2022/05/16 03:21:35;;;;;;;14.50;6.00;;;11.40;99.90;;;;;;5053420;28;20200;-57
2022/05/16 03:24:01;;;;;;;13.20;5.60;;;11.50;99.90;;;;;;5051943;28;20748;-55
2022/05/16 03:26:26;;;;;;;16.50;6.37;;;11.60;99.90;;;;;;5053092;28;20184;-56
2022/05/16 03:28:53;;;;;;;20.50;6.93;;;11.60;99.90;;;;;;5052649;28;20631;-58
2022/05/16 03:31:19;;;;;;;15.27;6.20;;;11.70;99.90;;;;;;5052658;28;20209;-58
2022/05/16 03:33:45;;;;;;;22.47;7.57;;;11.80;99.90;;;;;;5052830;28;20177;-58
2022/05/16 03:36:11;;;;;;;28.67;8.50;;;11.80;99.90;;;;;;5053061;28;20189;-57
2022/05/16 03:41:23;;;;;;;27.43;8.13;;;12.00;99.90;;;;;;5052560;28;20253;-58
2022/05/16 03:43:50;;;;;;;19.40;7.60;;;12.00;99.90;;;;;;5052432;28;20194;-58
2022/05/16 03:46:16;;;;;;;21.00;7.47;;;12.00;99.90;;;;;;5052521;28;20196;-58
2022/05/16 03:48:42;;;;;;;35.50;8.30;;;12.10;99.90;;;;;;5052665;28;20268;-58
2022/05/16 03:51:10;;;;;;;25.73;8.10;;;12.20;99.90;;;;;;5051777;28;20340;-58
2022/05/16 03:53:42;;;;;;;22.23;7.40;;;12.30;99.90;;;;;;5052138;28;20182;-57
2022/05/16 03:56:08;;;;;;;16.13;7.20;;;12.40;99.90;;;;;;5052062;28;20178;-58
2022/05/16 03:58:33;;;;;;;12.70;5.63;;;12.40;99.90;;;;;;5033903;28;20190;-59
2022/05/16 04:00:59;;;;;;;35.03;8.83;;;12.50;99.90;;;;;;5052097;28;20273;-58
2022/05/16 04:03:26;;;;;;;29.73;7.53;;;12.70;99.90;;;;;;5052085;28;20188;-58
2022/05/16 04:05:52;;;;;;;17.07;5.30;;;12.70;99.90;;;;;;5052169;28;20534;-57
2022/05/16 04:08:17;;;;;;;14.13;6.23;;;12.70;99.90;;;;;;5050690;28;20193;-56
2022/05/16 04:10:43;;;;;;;16.13;5.90;;;12.80;99.90;;;;;;5051807;28;20217;-55
2022/05/16 04:13:09;;;;;;;13.80;4.83;;;12.90;99.90;;;;;;5051901;28;20188;-57
2022/05/16 04:15:34;;;;;;;21.10;4.73;;;13.00;99.90;;;;;;5051548;28;20190;-56
2022/05/16 04:18:00;;;;;;;13.67;5.07;;;13.10;99.90;;;;;;5051362;28;20259;-58
2022/05/16 04:20:26;;;;;;;23.17;6.83;;;13.10;99.90;;;;;;5051907;28;20240;-59
2022/05/16 04:22:52;;;;;;;23.27;6.50;;;13.30;99.90;;;;;;5050513;28;20548;-57
2022/05/16 04:25:20;;;;;;;22.00;6.80;;;13.40;99.90;;;;;;5051287;28;20226;-57
2022/05/16 04:27:46;;;;;;;12.10;4.83;;;13.40;99.90;;;;;;5051736;28;20178;-58
2022/05/16 04:30:13;;;;;;;15.43;5.90;;;13.50;99.90;;;;;;5050280;28;20679;-58
2022/05/16 04:32:39;;;;;;;10.37;4.43;;;13.40;99.90;;;;;;5051086;28;20578;-59
2022/05/16 04:35:05;;;;;;;10.10;4.60;;;13.40;99.90;;;;;;5049422;28;20555;-59
2022/05/16 04:37:32;;;;;;;13.57;5.50;;;13.50;99.90;;;;;;5051333;28;20667;-57
2022/05/16 04:40:03;;;;;;;10.83;4.97;;;13.50;99.90;;;;;;5051307;28;20183;-58
2022/05/16 04:42:41;;;;;;;17.07;6.80;;;13.50;99.90;;;;;;5051159;28;20627;-59
2022/05/16 04:45:13;;;;;;;10.57;4.13;;;13.50;99.90;;;;;;5050483;28;20212;-59
2022/05/16 04:47:38;;;;;;;21.50;5.90;;;13.60;99.90;;;;;;5051233;28;20181;-58
2022/05/16 04:50:05;;;;;;;12.40;4.80;;;13.70;99.90;;;;;;5050762;28;20217;-66
2022/05/16 04:52:32;;;;;;;11.27;4.23;;;13.90;99.90;;;;;;5050718;28;20186;-60
2022/05/16 04:54:59;;;;;;;16.07;5.13;;;13.90;99.90;;;;;;5050526;28;20174;-59
2022/05/16 04:57:25;;;;;;;13.83;4.27;;;14.00;99.90;;;;;;5049246;28;20186;-59
2022/05/16 04:59:52;;;;;;;12.00;5.20;;;13.90;99.90;;;;;;5050487;28;20195;-59
2022/05/16 05:02:19;;;;;;;13.03;4.10;;;13.90;99.90;;;;;;5050538;28;20246;-58
2022/05/16 05:04:45;;;;;;;14.50;3.93;;;13.80;99.90;;;;;;5050218;28;20546;-57
2022/05/16 05:07:12;;;;;;;13.70;4.60;;;13.80;99.90;;;;;;5050171;28;20186;-60
2022/05/16 05:15:10;;;;;;;17.23;4.83;;;14.00;99.90;;;;;;5049404;28;20165;-60
2022/05/16 05:17:36;;;;;;;14.27;4.97;;;14.00;99.90;;;;;;5036234;28;20281;-61
2022/05/16 05:20:03;;;;;;;12.47;4.53;;;14.20;99.90;;;;;;5047996;28;20339;-59
2022/05/16 05:22:29;;;;;;;15.57;4.53;;;14.30;99.90;;;;;;5049156;28;20187;-59
2022/05/16 05:24:55;;;;;;;19.63;5.83;;;14.50;99.90;;;;;;5049017;28;20754;-60
2022/05/16 05:27:21;;;;;;;17.33;5.20;;;14.60;99.90;;;;;;5049458;28;20198;-60
2022/05/16 05:29:48;;;;;;;11.20;3.53;;;14.70;99.90;;;;;;5046934;28;20203;-59
2022/05/16 05:32:15;;;;;;;15.57;3.97;;;14.80;99.90;;;;;;5049457;28;20273;-59
2022/05/16 05:34:41;;;;;;;16.07;4.27;;;15.00;99.90;;;;;;5048722;28;20182;-60
2022/05/16 05:37:07;;;;;;;15.00;4.17;;;15.10;99.90;;;;;;5048379;28;20608;-59
2022/05/16 05:39:34;;;;;;;11.80;3.93;;;15.20;99.90;;;;;;5049106;28;20274;-59
2022/05/16 05:42:00;;;;;;;14.80;3.90;;;15.10;99.90;;;;;;5050193;28;20194;-58
2022/05/16 05:44:26;;;;;;;9.93;3.60;;;15.10;99.90;;;;;;5049279;28;20621;-59
2022/05/16 05:46:51;;;;;;;10.73;3.73;;;15.10;99.90;;;;;;5047934;28;20198;-60
2022/05/16 05:49:17;;;;;;;12.07;4.20;;;15.20;99.90;;;;;;5049070;28;20233;-58
2022/05/16 05:51:43;;;;;;;13.73;3.60;;;15.30;99.90;;;;;;5051189;28;20198;-61
2022/05/16 05:54:09;;;;;;;10.43;3.40;;;15.40;99.90;;;;;;5053161;28;20219;-61
2022/05/16 05:56:35;;;;;;;11.43;4.47;;;15.50;99.90;;;;;;5053217;28;20214;-59
2022/05/16 05:59:01;;;;;;;19.43;5.63;;;15.60;99.90;;;;;;5051977;28;20268;-58
2022/05/16 06:01:26;;;;;;;13.97;4.83;;;15.70;99.90;;;;;;5053299;28;20191;-57
2022/05/16 06:03:53;;;;;;;9.07;3.73;;;15.60;99.90;;;;;;5053475;28;20632;-58
2022/05/16 06:06:19;;;;;;;28.67;5.57;;;15.70;99.90;;;;;;5052028;28;20194;-60
2022/05/16 06:08:45;;;;;;;12.20;4.30;;;15.80;99.60;;;;;;5052390;28;20181;-58
2022/05/16 06:11:10;;;;;;;10.80;4.97;;;16.00;99.90;;;;;;5052042;28;20202;-55
2022/05/16 06:13:38;;;;;;;12.73;4.07;;;16.30;99.90;;;;;;5050723;28;20186;-51
2022/05/16 06:16:08;;;;;;;12.23;5.00;;;16.50;99.70;;;;;;5043463;28;20175;-56
2022/05/16 06:18:35;;;;;;;15.47;4.00;;;16.60;98.80;;;;;;5042387;28;20467;-63
2022/05/16 06:21:01;;;;;;;9.73;3.37;;;16.60;98.60;;;;;;5049795;28;20197;-58
2022/05/16 06:23:27;;;;;;;13.23;4.07;;;16.70;97.90;;;;;;5048155;28;20653;-59
2022/05/16 06:25:53;;;;;;;13.60;4.10;;;16.70;98.30;;;;;;5053382;28;20190;-61
2022/05/16 06:28:24;;;;;;;15.80;5.00;;;16.90;99.30;;;;;;5053052;28;20548;-61
2022/05/16 06:30:51;;;;;;;10.83;3.70;;;17.20;99.10;;;;;;5052262;28;20623;-64
2022/05/16 06:33:20;;;;;;;11.97;3.97;;;17.40;96.00;;;;;;5051464;28;20250;-59
2022/05/16 06:35:47;;;;;;;9.37;3.43;;;17.50;95.30;;;;;;5052918;28;20184;-60
2022/05/16 06:38:16;;;;;;;16.80;7.90;;;17.60;94.70;;;;;;5052381;28;20178;-60
2022/05/16 06:40:46;;;;;;;11.27;4.00;;;17.60;93.60;;;;;;5045164;28;20198;-60
2022/05/16 06:43:12;;;;;;;8.40;3.57;;;17.50;94.50;;;;;;5050069;28;20182;-59
2022/05/16 06:45:38;;;;;;;14.77;3.67;;;17.50;94.40;;;;;;5048565;28;20636;-59
2022/05/16 06:48:04;;;;;;;33.73;5.80;;;17.40;94.40;;;;;;5047915;28;20274;-57
2022/05/16 06:50:31;;;;;;;12.20;3.50;;;17.40;94.40;;;;;;5051805;28;20537;-57
2022/05/16 06:52:58;;;;;;;12.70;4.20;;;17.40;94.70;;;;;;5052248;28;20209;-57
2022/05/16 06:55:24;;;;;;;14.50;3.37;;;17.50;94.40;;;;;;5043281;28;20261;-60
2022/05/16 06:57:50;;;;;;;20.70;3.93;;;17.50;94.00;;;;;;5051570;28;20608;-58
2022/05/16 07:00:16;;;;;;;10.43;3.83;;;17.60;95.00;;;;;;5037075;28;20179;-59
2022/05/16 07:02:42;;;;;;;10.20;2.90;;;17.70;94.00;;;;;;5030409;28;20228;-58
2022/05/16 07:05:09;;;;;;;14.77;3.67;;;17.80;93.30;;;;;;5049798;28;20262;-57
2022/05/16 07:07:35;;;;;;;22.27;4.57;;;17.80;93.00;;;;;;5051657;28;20170;-58
2022/05/16 07:10:04;;;;;;;16.83;3.00;;;17.80;92.80;;;;;;5051703;28;20502;-56
2022/05/16 07:12:30;;;;;;;5.93;2.00;;;17.90;93.00;;;;;;5052241;28;20236;-59
2022/05/16 07:14:56;;;;;;;12.63;3.10;;;18.10;91.90;;;;;;5052480;28;20219;-60
2022/05/16 07:17:22;;;;;;;11.07;2.57;;;18.10;91.90;;;;;;5051499;28;20273;-60
2022/05/16 07:19:49;;;;;;;14.07;3.13;;;18.10;91.60;;;;;;5052167;28;20182;-60
2022/05/16 07:22:19;;;;;;;15.90;3.40;;;18.00;91.80;;;;;;5051895;28;20174;-56
2022/05/16 07:24:45;;;;;;;13.50;3.90;;;18.10;92.20;;;;;;5051646;28;20297;-60
2022/05/16 07:29:57;;;;;;;111.90;71.17;;;18.30;91.50;;;;;;5050904;28;20193;-61
2022/05/16 07:32:23;;;;;;;47.93;9.23;;;18.50;90.90;;;;;;5048657;28;20183;-60
2022/05/16 07:34:49;;;;;;;20.13;3.50;;;18.50;90.80;;;;;;5050761;28;20609;-58
2022/05/16 07:37:15;;;;;;;18.47;3.50;;;18.50;90.40;;;;;;5050544;28;20174;-61
2022/05/16 07:39:41;;;;;;;16.60;3.20;;;18.40;90.10;;;;;;5052008;28;20181;-59
2022/05/16 07:42:09;;;;;;;16.47;3.87;;;18.50;90.20;;;;;;5050622;28;20186;-60
2022/05/16 07:44:37;;;;;;;11.80;2.93;;;18.60;89.60;;;;;;5051558;28;20579;-61
2022/05/16 07:47:04;;;;;;;8.43;3.60;;;18.70;90.00;;;;;;5051215;28;20265;-59
2022/05/16 07:49:30;;;;;;;31.97;5.23;;;18.80;89.50;;;;;;5050015;28;20481;-61
2022/05/16 07:51:55;;;;;;;14.03;3.60;;;19.00;90.10;;;;;;5051493;28;20251;-59
2022/05/16 07:54:21;;;;;;;16.85;3.75;;;19.20;88.40;;;;;;5051594;28;20193;-61
2022/05/16 07:56:47;;;;;;;15.35;3.50;;;19.30;87.70;;;;;;5051769;28;20178;-60
2022/05/16 08:01:53;;;;;;;20.67;7.45;;;19.30;85.40;;;;;;5340131;22;20238;-60
2022/05/16 08:04:18;;;;;;;14.57;2.88;;;19.20;87.00;;;;;;5050128;28;20186;-63
2022/05/16 08:06:44;;;;;;;10.57;3.20;;;19.40;87.00;;;;;;5051457;28;20250;-63
2022/05/16 08:11:54;;;;;;;14.37;3.30;;;19.60;85.00;;;;;;5051208;28;20321;-63
2022/05/16 08:14:20;;;;;;;8.88;3.25;;;19.70;84.50;;;;;;5050999;28;20277;-64
2022/05/16 08:16:46;;;;;;;12.45;3.75;;;19.70;84.40;;;;;;5050930;28;20263;-63
2022/05/16 08:19:12;;;;;;;8.05;3.10;;;19.90;83.60;;;;;;5051268;28;20174;-61
2022/05/16 08:21:39;;;;;;;10.35;3.00;;;19.80;82.20;;;;;;5050898;28;20182;-61
2022/05/16 08:24:08;;;;;;;8.07;3.58;;;19.90;82.90;;;;;;5051269;28;20252;-63
2022/05/16 08:26:34;;;;;;;15.95;3.65;;;20.10;82.40;;;;;;5051255;28;20197;-61
2022/05/16 08:28:59;;;;;;;8.00;2.80;;;20.00;81.20;;;;;;5033258;28;20237;-62
2022/05/16 08:31:28;;;;;;;8.77;2.95;;;20.10;80.70;;;;;;5050426;28;20631;-59
2022/05/16 08:33:55;;;;;;;11.43;3.47;;;20.20;79.70;;;;;;5050564;28;20629;-57
2022/05/16 08:42:09;;;;;;;9.38;3.80;;;20.50;78.90;;;;;;5045740;28;20204;-60
2022/05/16 08:44:41;;;;;;;7.78;2.70;;;20.90;78.10;;;;;;5050743;28;20186;-61
2022/05/16 08:47:15;;;;;;;9.52;3.72;;;21.10;76.70;;;;;;5050737;28;20176;-61
2022/05/16 08:49:53;;;;;;;16.33;5.13;;;21.50;76.70;;;;;;5050809;28;20250;-61
2022/05/16 08:52:41;;;;;;;13.88;3.78;;;22.10;75.40;;;;;;5051100;28;20256;-59
2022/05/16 08:55:38;;;;;;;20.60;4.35;;;22.60;71.30;;;;;;5050605;28;20616;-62
2022/05/16 08:58:23;;;;;;;13.20;2.80;;;22.60;69.20;;;;;;5050645;28;20170;-61
2022/05/16 09:00:53;;;;;;;10.25;3.30;;;22.40;70.00;;;;;;5050265;28;20237;-61
2022/05/16 09:03:24;;;;;;;16.98;4.25;;;22.50;70.00;;;;;;5050425;28;20242;-61
2022/05/16 09:06:01;;;;;;;8.90;3.58;;;22.50;70.50;;;;;;5050644;28;20517;-58
2022/05/16 09:08:51;;;;;;;10.57;3.50;;;22.30;69.50;;;;;;5050227;28;20163;-55
2022/05/16 09:11:26;;;;;;;13.57;3.40;;;22.20;69.80;;;;;;5050010;28;20624;-61
2022/05/16 09:14:00;;;;;;;11.10;2.95;;;22.20;69.20;;;;;;5050086;28;20616;-62
2022/05/16 09:16:49;;;;;;;12.10;3.08;;;22.10;68.60;;;;;;5031986;28;20248;-63
2022/05/16 09:19:21;;;;;;;10.27;3.60;;;21.90;69.50;;;;;;5049485;28;20201;-62
2022/05/16 09:22:02;;;;;;;9.82;2.83;;;21.80;70.00;;;;;;5050233;28;20189;-60
2022/05/16 09:24:35;;;;;;;11.45;3.65;;;21.70;69.20;;;;;;5050402;28;20175;-63
2022/05/16 09:30:05;;;;;;;25.55;4.63;;;22.00;69.20;;;;;;5053908;28;20192;-68
2022/05/16 09:32:35;;;;;;;9.40;4.10;;;22.10;69.30;;;;;;5053869;28;20189;-63
2022/05/16 09:35:01;;;;;;;13.52;4.03;;;22.50;69.70;;;;;;5053983;28;20181;-61
2022/05/16 09:37:28;;;;;;;9.00;2.88;;;22.60;69.70;;;;;;5054214;28;20225;-63
2022/05/16 09:39:54;;;;;;;11.27;3.25;;;22.90;70.10;;;;;;5053978;28;20540;-63
2022/05/16 09:42:34;;;;;;;5.75;2.83;;;22.80;68.30;;;;;;5053716;28;20201;-61
2022/05/16 09:45:12;;;;;;;9.00;3.42;;;22.30;67.40;;;;;;5053228;28;20162;-68
2022/05/16 09:47:40;;;;;;;12.30;3.10;;;22.50;67.00;;;;;;5054123;28;20170;-62
2022/05/16 09:50:20;;;;;;;10.55;3.38;;;22.80;66.20;;;;;;5053257;28;20202;-60
2022/05/16 09:53:13;;;;;;;14.00;4.22;;;23.00;68.50;;;;;;5053525;28;20253;-63
2022/05/16 09:55:56;;;;;;;11.75;4.15;;;23.10;67.60;;;;;;5053314;28;20189;-62
2022/05/16 09:58:33;;;;;;;18.70;4.35;;;23.40;67.30;;;;;;5053189;28;20202;-62
2022/05/16 10:01:08;;;;;;;15.25;4.10;;;23.20;67.60;;;;;;5026401;28;20788;-62
2022/05/16 10:03:42;;;;;;;13.75;4.10;;;23.40;66.30;;;;;;5020720;28;20177;-57
2022/05/16 10:06:25;;;;;;;11.77;3.53;;;23.20;67.10;;;;;;5032790;28;20673;-61
2022/05/16 10:08:52;;;;;;;15.05;5.38;;;23.40;67.70;;;;;;5032612;28;20644;-59
2022/05/16 10:11:24;;;;;;;15.40;4.07;;;23.70;66.00;;;;;;5032044;28;20210;-60
2022/05/16 10:13:50;;;;;;;27.25;5.75;;;23.50;65.60;;;;;;5032903;28;20179;-60
2022/05/16 10:16:17;;;;;;;13.05;4.55;;;23.30;66.30;;;;;;5032449;28;20193;-62
2022/05/16 10:18:47;;;;;;;11.70;5.18;;;23.30;67.00;;;;;;5031945;28;20238;-60
2022/05/16 10:21:39;;;;;;;12.10;4.15;;;23.40;67.60;;;;;;5033126;28;20314;-60
2022/05/16 10:24:09;;;;;;;24.73;6.00;;;23.30;67.30;;;;;;5032957;28;20178;-61
2022/05/16 10:26:39;;;;;;;19.60;4.90;;;23.30;68.70;;;;;;5033142;28;20179;-66
2022/05/16 10:29:14;;;;;;;15.18;4.95;;;23.40;67.90;;;;;;5032863;28;20170;-65
2022/05/16 10:34:48;;;;;;;20.48;4.57;;;23.50;68.30;;;;;;5013149;28;20257;-61
2022/05/16 10:37:15;;;;;;;10.98;4.68;;;23.30;67.70;;;;;;5012743;28;20168;-60
2022/05/16 10:39:50;;;;;;;13.48;3.78;;;23.30;67.80;;;;;;5012953;28;20207;-58
2022/05/16 10:42:24;;;;;;;17.60;4.10;;;23.40;68.30;;;;;;5020517;28;20182;-59
2022/05/16 10:45:04;;;;;;;10.07;3.72;;;23.80;68.30;;;;;;5032750;28;20218;-61
2022/05/16 10:47:52;;;;;;;22.55;4.93;;;23.90;66.60;;;;;;5032861;28;20182;-60
2022/05/16 10:50:26;;;;;;;120.20;71.68;;;23.60;67.10;;;;;;5032780;28;20647;-59
2022/05/16 10:53:10;;;;;;;17.92;7.38;;;23.80;66.20;;;;;;5032732;28;20233;-60
2022/05/16 10:55:51;;;;;;;11.15;3.58;;;24.10;67.20;;;;;;5032476;28;20633;-60
2022/05/16 10:58:32;;;;;;;21.88;4.05;;;24.60;65.70;;;;;;5031977;28;20171;-60
2022/05/16 11:01:19;;;;;;;14.82;3.85;;;24.60;64.40;;;;;;5037186;28;20253;-59
2022/05/16 11:03:53;;;;;;;10.88;3.63;;;24.80;64.60;;;;;;5052066;28;20216;-60
2022/05/16 11:06:19;;;;;;;9.98;3.88;;;25.10;63.70;;;;;;5051702;28;20223;-60
2022/05/16 11:09:06;;;;;;;12.30;5.30;;;25.30;65.40;;;;;;5052359;28;20182;-60
2022/05/16 11:11:38;;;;;;;8.27;3.10;;;25.40;63.70;;;;;;5051488;28;20200;-61
2022/05/16 11:14:36;;;;;;;13.48;3.78;;;25.50;62.20;;;;;;5033887;28;20200;-67
2022/05/16 11:17:51;;;;;;;12.43;3.50;;;25.80;63.30;;;;;;5041662;28;20208;-60
2022/05/16 11:20:31;;;;;;;8.02;2.95;;;26.10;62.50;;;;;;4970269;28;20189;-60
2022/05/16 11:23:25;;;;;;;23.70;3.75;;;26.40;61.80;;;;;;5042715;28;20285;-59
2022/05/16 11:26:04;;;;;;;17.30;4.35;;;27.40;60.10;;;;;;5033996;28;20189;-60
2022/05/16 11:29:16;;;;;;;13.50;2.72;;;29.90;56.00;;;;;;5052461;28;20193;-60
2022/05/16 11:31:29;;;;;;;11.02;3.28;;;31.50;51.90;;;;;;5051017;28;20227;-59
2022/05/16 11:33:56;;;;;;;7.80;3.17;;;32.80;49.40;;;;;;5034388;28;20178;-59
2022/05/16 11:36:44;;;;;;;10.55;2.60;;;33.20;47.00;;;;;;5051637;28;20236;-60
2022/05/16 11:39:10;;;;;;;7.90;2.85;;;32.80;46.50;;;;;;5051607;28;20236;-59
2022/05/16 11:42:06;;;;;;;9.27;3.00;;;32.80;45.10;;;;;;5051216;28;20178;-59
2022/05/16 11:44:54;;;;;;;7.72;3.30;;;32.80;45.30;;;;;;5033948;28;20184;-59
2022/05/16 11:47:27;;;;;;;12.75;3.67;;;31.90;45.20;;;;;;5051160;28;20155;-60
2022/05/16 11:50:31;;;;;;;7.70;2.65;;;32.10;45.80;;;;;;5051423;28;20167;-60
2022/05/16 11:53:44;;;;;;;13.80;3.10;;;32.00;46.30;;;;;;4970787;28;20385;-60
2022/05/16 12:02:14;;;;;;;12.88;3.50;;;33.80;42.30;;;;;;4969332;28;20238;-61
2022/05/16 12:04:48;;;;;;;11.70;3.17;;;32.20;44.10;;;;;;5012631;28;20195;-59
2022/05/16 12:07:18;;;;;;;10.48;3.35;;;31.20;45.60;;;;;;5010594;28;20168;-59
2022/05/16 12:09:56;;;;;;;13.90;3.50;;;30.60;45.70;;;;;;5011261;28;20233;-59
2022/05/16 12:12:31;;;;;;;10.10;3.33;;;30.40;46.30;;;;;;5003804;28;22786;-61
2022/05/16 12:15:24;;;;;;;8.68;2.92;;;30.30;46.60;;;;;;5005210;28;20183;-59
2022/05/16 12:18:26;;;;;;;13.73;3.97;;;30.60;45.90;;;;;;4991709;28;20188;-58
2022/05/16 12:20:58;;;;;;;16.42;3.47;;;29.60;46.30;;;;;;4994613;28;20267;-60
2022/05/16 12:23:47;;;;;;;10.43;4.50;;;28.80;47.80;;;;;;5005799;28;20188;-61
2022/05/16 12:26:26;;;;;;;14.93;3.45;;;30.20;47.10;;;;;;5000352;28;20210;-59
2022/05/16 12:29:10;;;;;;;8.80;2.78;;;31.90;44.10;;;;;;5005672;28;20194;-61
2022/05/16 12:31:44;;;;;;;17.27;3.75;;;33.50;43.10;;;;;;5009873;28;20219;-61
2022/05/16 12:34:35;;;;;;;10.40;3.30;;;34.80;41.40;;;;;;4997581;28;20284;-60
2022/05/16 12:37:09;;;;;;;13.38;3.30;;;35.10;40.70;;;;;;5009769;28;20239;-60
2022/05/16 12:39:49;;;;;;;7.47;3.03;;;34.60;40.50;;;;;;5010744;28;20224;-60
2022/05/16 12:42:47;;;;;;;11.30;3.22;;;35.60;39.80;;;;;;5009771;28;20218;-61
2022/05/16 12:45:37;;;;;;;23.70;5.63;;;36.80;38.30;;;;;;5010092;28;20457;-59
2022/05/16 12:48:28;;;;;;;7.88;3.20;;;38.10;37.60;;;;;;5010085;28;20268;-59
2022/05/16 12:51:03;;;;;;;12.18;3.28;;;38.20;36.80;;;;;;5010579;28;20683;-59
2022/05/16 12:54:19;;;;;;;9.15;3.38;;;39.50;35.90;;;;;;5009611;28;20163;-60
2022/05/16 12:56:48;;;;;;;13.30;3.45;;;38.40;34.70;;;;;;4976388;28;20191;-59
2022/05/16 12:59:32;;;;;;;12.38;3.70;;;38.40;34.80;;;;;;5009272;28;20222;-59
2022/05/16 13:02:14;;;;;;;13.50;3.80;;;38.30;34.90;;;;;;4991942;28;1306208;-61
2022/05/16 13:04:50;;;;;;;12.55;3.60;;;36.60;35.00;;;;;;5050587;28;20181;-59
2022/05/16 13:07:36;;;;;;;14.35;4.15;;;34.20;38.00;;;;;;5050098;28;20639;-58
2022/05/16 13:10:23;;;;;;;17.20;4.20;;;32.00;40.90;;;;;;5050235;28;20166;-59
2022/05/16 13:13:09;;;;;;;15.13;3.92;;;30.50;43.20;;;;;;5050164;28;20194;-59
2022/05/16 13:15:35;;;;;;;17.95;3.45;;;29.50;44.40;;;;;;5049693;28;20185;-61
2022/05/16 13:18:07;;;;;;;11.73;2.90;;;28.90;45.40;;;;;;5050296;28;20174;-59
2022/05/16 13:20:42;;;;;;;6.80;2.60;;;28.50;45.00;;;;;;5050382;28;20233;-60
2022/05/16 13:23:08;;;;;;;13.07;5.50;;;28.30;45.60;;;;;;5049642;28;20162;-60
2022/05/16 13:29:21;;;;;;;14.52;4.55;;;27.80;47.00;;;;;;5050291;28;20191;-63
2022/05/16 13:31:06;;;;;;;16.98;3.70;;;27.50;47.60;;;;;;5050227;28;20263;-69
2022/05/16 13:33:36;;;;;;;10.23;3.67;;;27.20;48.30;;;;;;5050318;28;20174;-59
2022/05/16 13:36:18;;;;;;;14.60;4.07;;;27.40;48.00;;;;;;5050124;28;20205;-60
2022/05/16 13:38:46;;;;;;;10.70;3.70;;;28.20;47.90;;;;;;5050180;28;20182;-59
2022/05/16 13:41:12;;;;;;;18.60;3.05;;;28.40;46.50;;;;;;5049609;28;20191;-61